createdAt,value
2023-04-16T00:01:13.657Z,12.67
2023-04-16T00:03:41.023Z,12.95
2023-04-16T00:06:08.203Z,13.12
2023-04-16T00:08:35.922Z,13.15
2023-04-16T00:11:03.051Z,13.20
2023-04-16T00:13:29.985Z,13.28
2023-04-16T00:15:57.144Z,13.24
2023-04-16T00:18:24.258Z,13.09
2023-04-16T00:20:51.791Z,13.16
2023-04-16T00:23:18.818Z,13.00
2023-04-16T00:25:45.850Z,12.85
2023-04-16T00:28:12.887Z,12.59
2023-04-16T00:30:41.081Z,12.83
2023-04-16T00:33:08.287Z,12.77
2023-04-16T00:35:35.210Z,12.89
2023-04-16T00:38:02.364Z,12.81
2023-04-16T00:40:30.118Z,12.67
2023-04-16T00:42:57.059Z,12.39
2023-04-16T00:45:24.106Z,12.31
2023-04-16T00:47:51.268Z,12.17
2023-04-16T00:50:18.772Z,12.25
2023-04-16T00:52:47.677Z,12.38
2023-04-16T00:55:17.711Z,12.39
2023-04-16T00:57:45.961Z,12.50
2023-04-16T01:00:13.595Z,12.62
2023-04-16T01:02:40.869Z,12.77
2023-04-16T01:05:08.553Z,12.72
2023-04-16T01:07:35.747Z,12.72
2023-04-16T01:10:04.133Z,12.76
2023-04-16T01:12:32.581Z,12.81
2023-04-16T01:14:59.891Z,12.85
2023-04-16T01:17:26.892Z,12.65
2023-04-16T01:19:53.929Z,12.70
2023-04-16T01:22:20.971Z,12.52
2023-04-16T01:24:48.448Z,12.44
2023-04-16T01:27:15.790Z,12.35
2023-04-16T01:29:43.007Z,12.40
2023-04-16T01:32:10.599Z,12.38
2023-04-16T01:34:40.807Z,12.45
2023-04-16T01:37:10.984Z,12.29
2023-04-16T01:39:37.970Z,12.21
2023-04-16T01:42:05.457Z,12.29
2023-04-16T01:47:53.770Z,12.11
2023-04-16T01:50:21.817Z,11.99
2023-04-16T01:52:48.833Z,12.03
2023-04-16T01:55:15.931Z,12.21
2023-04-16T01:57:43.024Z,12.00
2023-04-16T02:00:11.648Z,12.26
2023-04-16T02:02:49.322Z,12.30
2023-04-16T02:05:24.463Z,12.14
2023-04-16T02:07:51.492Z,12.12
2023-04-16T02:10:18.529Z,12.26
2023-04-16T02:12:47.728Z,12.15
2023-04-16T02:15:16.426Z,12.12
2023-04-16T02:17:43.872Z,11.82
2023-04-16T02:20:11.410Z,11.71
2023-04-16T02:22:48.759Z,11.73
2023-04-16T02:25:18.963Z,11.79
2023-04-16T02:27:47.836Z,11.89
2023-04-16T02:30:25.310Z,12.04
2023-04-16T02:32:53.541Z,12.05
2023-04-16T02:35:21.282Z,11.73
2023-04-16T02:37:48.504Z,11.59
2023-04-16T02:40:15.688Z,11.36
2023-04-16T02:42:42.563Z,11.35
2023-04-16T02:45:10.293Z,11.50
2023-04-16T02:47:37.344Z,11.64
2023-04-16T02:50:04.586Z,11.83
2023-04-16T02:52:32.784Z,11.79
2023-04-16T02:55:00.519Z,11.98
2023-04-16T02:57:27.438Z,12.06
2023-04-16T02:59:54.401Z,12.20
2023-04-16T03:02:21.674Z,12.24
2023-04-16T03:04:48.741Z,12.22
2023-04-16T03:07:15.981Z,12.37
2023-04-16T03:09:43.112Z,12.26
2023-04-16T03:12:10.372Z,12.21
2023-04-16T03:14:37.305Z,12.17
2023-04-16T03:17:04.336Z,12.15
2023-04-16T03:19:31.350Z,12.07
2023-04-16T03:21:58.302Z,12.11
2023-04-16T03:24:26.156Z,11.96
2023-04-16T03:26:53.319Z,11.85
2023-04-16T03:29:22.407Z,11.61
2023-04-16T03:31:49.418Z,11.48
2023-04-16T03:34:16.339Z,11.50
2023-04-16T03:36:43.646Z,11.64
2023-04-16T03:39:11.188Z,11.88
2023-04-16T03:41:38.534Z,11.88
2023-04-16T03:44:05.533Z,11.78
2023-04-16T03:46:33.528Z,11.80
2023-04-16T03:49:00.958Z,11.80
2023-04-16T03:51:28.758Z,11.98
2023-04-16T03:53:56.557Z,11.95
2023-04-16T03:56:24.635Z,11.88
2023-04-16T03:58:53.153Z,11.79
2023-04-16T04:01:20.077Z,11.52
2023-04-16T04:03:47.581Z,11.44
2023-04-16T04:06:15.698Z,11.32
2023-04-16T04:08:43.343Z,11.32
2023-04-16T04:11:10.812Z,11.33
2023-04-16T04:13:39.628Z,11.34
2023-04-16T04:16:06.973Z,11.35
2023-04-16T04:18:33.976Z,11.12
2023-04-16T04:21:06.228Z,11.20
2023-04-16T04:23:34.563Z,11.36
2023-04-16T04:26:03.918Z,11.50
2023-04-16T04:28:32.267Z,11.60
2023-04-16T04:31:00.189Z,11.85
2023-04-16T04:33:29.033Z,11.86
2023-04-16T04:35:56.034Z,11.74
2023-04-16T04:38:25.322Z,11.83
2023-04-16T04:40:54.048Z,12.01
2023-04-16T04:43:23.177Z,12.05
2023-04-16T04:45:50.993Z,12.16
2023-04-16T04:48:18.488Z,12.23
2023-04-16T04:50:46.776Z,12.30
2023-04-16T04:53:15.096Z,12.15
2023-04-16T04:55:42.864Z,12.18
2023-04-16T04:58:09.915Z,12.25
2023-04-16T05:00:37.687Z,11.93
2023-04-16T05:03:06.711Z,11.85
2023-04-16T05:05:33.682Z,11.89
2023-04-16T05:08:00.756Z,11.76
2023-04-16T05:10:28.008Z,11.70
2023-04-16T05:12:55.022Z,11.74
2023-04-16T05:15:22.263Z,11.68
2023-04-16T05:17:49.212Z,12.11
2023-04-16T05:20:16.165Z,12.06
2023-04-16T05:22:43.159Z,12.07
2023-04-16T05:25:10.472Z,12.16
2023-04-16T05:27:37.519Z,12.33
2023-04-16T05:30:05.449Z,12.58
2023-04-16T05:32:33.139Z,12.64
2023-04-16T05:35:00.153Z,12.78
2023-04-16T05:37:27.242Z,13.11
2023-04-16T05:39:54.227Z,13.08
2023-04-16T05:42:21.231Z,13.10
2023-04-16T05:44:48.342Z,13.35
2023-04-16T05:47:15.625Z,13.51
2023-04-16T05:49:42.612Z,13.47
2023-04-16T05:52:09.866Z,13.44
2023-04-16T05:54:36.870Z,13.49
2023-04-16T05:57:03.922Z,13.72
2023-04-16T05:59:31.044Z,13.57
2023-04-16T06:01:58.085Z,13.55
2023-04-16T06:04:25.112Z,13.66
2023-04-16T06:06:52.124Z,13.67
2023-04-16T06:09:19.275Z,13.75
2023-04-16T06:11:46.330Z,13.65
2023-04-16T06:14:13.554Z,13.66
2023-04-16T06:16:40.818Z,13.89
2023-04-16T06:19:07.966Z,13.99
2023-04-16T06:21:35.184Z,14.01
2023-04-16T06:24:02.239Z,14.13
2023-04-16T06:26:29.413Z,13.93
2023-04-16T06:28:56.691Z,14.09
2023-04-16T06:31:24.706Z,14.03
2023-04-16T06:33:52.111Z,14.01
2023-04-16T06:36:19.150Z,14.06
2023-04-16T06:38:46.662Z,13.65
2023-04-16T06:41:14.788Z,14.05
2023-04-16T06:43:41.823Z,13.86
2023-04-16T06:46:48.825Z,14.12
2023-04-16T06:49:16.115Z,14.31
2023-04-16T06:51:43.228Z,14.48
2023-04-16T06:54:10.378Z,14.51
2023-04-16T06:56:37.579Z,14.30
2023-04-16T06:59:04.824Z,13.90
2023-04-16T07:01:31.903Z,13.83
2023-04-16T07:03:59.994Z,14.01
2023-04-16T07:06:27.284Z,13.97
2023-04-16T07:08:54.326Z,14.18
2023-04-16T07:11:22.571Z,14.12
2023-04-16T07:13:51.220Z,14.27
2023-04-16T07:16:18.290Z,14.42
2023-04-16T07:18:45.585Z,14.74
2023-04-16T07:21:12.787Z,14.58
2023-04-16T07:23:39.794Z,14.47
2023-04-16T07:26:06.824Z,14.50
2023-04-16T07:28:33.936Z,14.50
2023-04-16T07:31:01.189Z,14.42
2023-04-16T07:33:28.155Z,14.33
2023-04-16T07:35:55.816Z,14.62
2023-04-16T07:38:23.370Z,14.68
2023-04-16T07:40:59.471Z,14.72
2023-04-16T07:43:26.499Z,14.73
2023-04-16T07:45:53.435Z,14.70
2023-04-16T07:48:20.672Z,15.05
2023-04-16T07:50:48.085Z,15.04
2023-04-16T07:53:14.968Z,15.20
2023-04-16T07:55:41.888Z,15.04
2023-04-16T07:58:09.684Z,14.83
2023-04-16T08:00:36.733Z,14.66
2023-04-16T08:03:04.538Z,14.61
2023-04-16T08:05:31.794Z,14.64
2023-04-16T08:07:58.831Z,14.53
2023-04-16T08:10:25.876Z,14.31
2023-04-16T08:12:53.013Z,14.54
2023-04-16T08:15:20.155Z,14.54
2023-04-16T08:17:47.176Z,14.64
2023-04-16T08:20:17.624Z,14.75
2023-04-16T08:22:46.719Z,14.74
2023-04-16T08:25:14.589Z,14.51
2023-04-16T08:27:41.526Z,14.26
2023-04-16T08:30:08.597Z,14.45
2023-04-16T08:32:35.602Z,14.48
2023-04-16T08:35:02.848Z,14.68
2023-04-16T08:37:31.329Z,14.83
2023-04-16T08:39:58.261Z,15.02
2023-04-16T08:42:40.778Z,15.16
2023-04-16T08:45:18.042Z,15.07
2023-04-16T08:47:50.262Z,15.10
2023-04-16T08:50:25.485Z,15.27
2023-04-16T08:52:53.668Z,15.32
2023-04-16T08:55:31.045Z,15.29
2023-04-16T08:57:59.589Z,15.31
2023-04-16T09:00:27.112Z,15.25
2023-04-16T09:02:54.383Z,15.70
2023-04-16T09:05:25.625Z,16.08
2023-04-16T09:07:54.537Z,16.16
2023-04-16T09:10:22.258Z,16.03
2023-04-16T09:12:49.904Z,15.75
2023-04-16T09:15:16.817Z,15.82
2023-04-16T09:17:43.785Z,15.62
2023-04-16T09:20:11.332Z,15.52
2023-04-16T09:22:40.318Z,15.30
2023-04-16T09:25:08.315Z,14.98
2023-04-16T09:27:36.269Z,14.98
2023-04-16T09:30:27.501Z,15.33
2023-04-16T09:33:23.277Z,15.53
2023-04-16T09:35:52.677Z,15.82
2023-04-16T09:38:20.729Z,15.90
2023-04-16T09:40:47.922Z,16.06
2023-04-16T09:43:17.188Z,16.07
2023-04-16T09:45:54.398Z,16.25
2023-04-16T09:48:30.071Z,16.06
2023-04-16T09:50:57.892Z,16.55
2023-04-16T09:53:29.748Z,16.74
2023-04-16T09:56:01.525Z,16.71
2023-04-16T09:58:29.180Z,16.82
2023-04-16T10:01:18.244Z,17.37
2023-04-16T10:03:49.944Z,17.45
2023-04-16T10:06:21.188Z,17.30
2023-04-16T10:08:50.342Z,17.23
2023-04-16T10:11:18.349Z,17.32
2023-04-16T10:13:46.004Z,17.73
2023-04-16T10:16:13.457Z,17.34
2023-04-16T10:18:42.452Z,17.32
2023-04-16T10:21:12.773Z,17.31
2023-04-16T10:23:40.637Z,17.01
2023-04-16T10:26:08.775Z,16.84
2023-04-16T10:28:36.367Z,16.95
2023-04-16T10:31:06.340Z,17.14
2023-04-16T10:33:40.606Z,17.27
2023-04-16T10:36:09.584Z,17.43
2023-04-16T10:38:40.360Z,17.44
2023-04-16T10:41:09.224Z,17.27
2023-04-16T10:43:41.892Z,17.23
2023-04-16T10:46:26.542Z,17.47
2023-04-16T10:48:55.685Z,17.52
2023-04-16T10:51:36.191Z,17.74
2023-04-16T10:54:09.018Z,17.60
2023-04-16T10:56:37.543Z,17.53
2023-04-16T10:59:08.934Z,17.36
2023-04-16T11:01:37.204Z,17.54
2023-04-16T11:04:20.048Z,17.60
2023-04-16T11:07:06.670Z,17.68
2023-04-16T11:09:50.542Z,17.66
2023-04-16T11:12:18.807Z,17.59
2023-04-16T11:15:02.935Z,17.54
2023-04-16T11:17:38.138Z,17.88
2023-04-16T11:20:19.882Z,17.92
2023-04-16T11:22:49.806Z,18.05
2023-04-16T11:25:21.661Z,18.16
2023-04-16T11:27:49.803Z,18.37
2023-04-16T11:30:17.577Z,18.51
2023-04-16T11:32:45.376Z,18.62
2023-04-16T11:35:17.682Z,18.36
2023-04-16T11:37:46.300Z,18.42
2023-04-16T11:40:13.605Z,18.39
2023-04-16T11:42:41.762Z,18.52
2023-04-16T11:45:10.627Z,18.55
2023-04-16T11:47:53.077Z,18.61
2023-04-16T11:50:28.252Z,18.48
2023-04-16T11:52:58.141Z,18.29
2023-04-16T11:55:25.497Z,18.61
2023-04-16T11:57:52.774Z,18.41
2023-04-16T12:00:23.708Z,18.27
2023-04-16T12:02:54.326Z,18.28
2023-04-16T12:05:39.382Z,18.16
2023-04-16T12:08:09.690Z,18.30
2023-04-16T12:10:59.665Z,18.24
2023-04-16T12:13:26.664Z,18.40
2023-04-16T12:15:56.020Z,18.29
2023-04-16T12:18:27.260Z,18.20
2023-04-16T12:20:54.608Z,18.13
2023-04-16T12:23:30.017Z,18.58
2023-04-16T12:26:02.676Z,18.24
2023-04-16T12:28:34.940Z,18.07
2023-04-16T12:31:03.292Z,18.27
2023-04-16T12:33:31.095Z,18.40
2023-04-16T12:35:58.290Z,18.30
2023-04-16T12:38:26.303Z,18.39
2023-04-16T12:40:56.830Z,18.69
2023-04-16T12:43:24.430Z,18.43
2023-04-16T12:45:51.419Z,18.11
2023-04-16T12:48:18.452Z,17.70
2023-04-16T12:50:46.086Z,18.17
2023-04-16T12:53:13.279Z,18.52
2023-04-16T12:55:40.436Z,18.69
2023-04-16T12:58:11.126Z,18.73
2023-04-16T13:00:40.551Z,18.80
2023-04-16T13:03:07.879Z,18.65
2023-04-16T13:05:35.354Z,18.67
2023-04-16T13:08:02.611Z,18.92
2023-04-16T13:10:30.105Z,18.94
2023-04-16T13:12:57.446Z,18.99
2023-04-16T13:15:24.632Z,18.35
2023-04-16T13:17:51.827Z,17.79
2023-04-16T13:20:19.239Z,17.72
2023-04-16T13:22:46.367Z,17.63
2023-04-16T13:25:13.252Z,17.78
2023-04-16T13:27:40.283Z,17.64
2023-04-16T13:30:07.880Z,17.41
2023-04-16T13:32:34.994Z,17.33
2023-04-16T13:35:01.902Z,17.32
2023-04-16T13:37:31.002Z,17.38
2023-04-16T13:39:58.123Z,17.46
2023-04-16T13:42:25.070Z,17.53
2023-04-16T13:44:54.220Z,17.55
2023-04-16T13:47:21.874Z,17.48
2023-04-16T13:50:09.196Z,17.24
2023-04-16T13:52:36.421Z,17.52
2023-04-16T13:55:04.146Z,17.29
2023-04-16T13:57:32.140Z,17.41
2023-04-16T13:59:59.108Z,17.78
2023-04-16T14:02:26.768Z,17.72
2023-04-16T14:04:53.955Z,17.93
2023-04-16T14:07:22.699Z,17.94
2023-04-16T14:09:49.637Z,18.10
2023-04-16T14:12:16.760Z,17.60
2023-04-16T14:14:43.718Z,17.41
2023-04-16T14:17:10.888Z,17.41
2023-04-16T14:19:37.876Z,17.47
2023-04-16T14:22:04.818Z,17.51
2023-04-16T14:24:31.769Z,17.31
2023-04-16T14:26:58.723Z,17.46
2023-04-16T14:29:25.902Z,17.66
2023-04-16T14:31:52.986Z,17.68
2023-04-16T14:34:19.957Z,17.73
2023-04-16T14:36:46.990Z,17.40
2023-04-16T14:39:13.986Z,17.70
2023-04-16T14:41:41.321Z,17.70
2023-04-16T14:44:08.356Z,17.76
2023-04-16T14:46:36.176Z,17.74
2023-04-16T14:51:45.498Z,17.45
2023-04-16T14:54:12.486Z,17.71
2023-04-16T14:56:39.459Z,17.93
2023-04-16T14:59:06.870Z,17.72
2023-04-16T15:01:34.701Z,17.68
2023-04-16T15:04:03.064Z,17.55
2023-04-16T15:06:30.194Z,17.40
2023-04-16T15:08:57.125Z,17.37
2023-04-16T15:11:24.046Z,17.51
2023-04-16T15:13:51.042Z,17.46
2023-04-16T15:16:18.502Z,17.48
2023-04-16T15:18:45.745Z,17.53
2023-04-16T15:21:12.893Z,17.57
2023-04-16T15:23:39.905Z,17.35
2023-04-16T15:26:06.962Z,17.21
2023-04-16T15:28:33.902Z,17.13
2023-04-16T15:31:01.210Z,17.17
2023-04-16T15:33:28.385Z,17.02
2023-04-16T15:35:55.369Z,17.05
2023-04-16T15:38:22.391Z,17.03
2023-04-16T15:40:49.563Z,17.07
2023-04-16T15:43:16.860Z,16.98
2023-04-16T15:45:43.940Z,16.93
2023-04-16T15:48:10.980Z,16.80
2023-04-16T15:50:38.067Z,16.71
2023-04-16T15:53:05.072Z,16.79
2023-04-16T15:55:32.056Z,16.73
2023-04-16T15:57:58.957Z,16.79
2023-04-16T16:00:26.258Z,16.83
2023-04-16T16:02:53.411Z,16.73
2023-04-16T16:05:20.534Z,16.77
2023-04-16T16:07:47.755Z,16.68
2023-04-16T16:10:15.050Z,16.69
2023-04-16T16:12:42.463Z,16.72
2023-04-16T16:15:11.261Z,16.59
2023-04-16T16:17:39.121Z,16.60
2023-04-16T16:20:09.583Z,16.37
2023-04-16T16:22:38.287Z,16.45
2023-04-16T16:25:06.131Z,16.45
2023-04-16T16:27:33.310Z,16.36
2023-04-16T16:30:01.124Z,16.43
2023-04-16T16:32:28.303Z,16.41
2023-04-16T16:34:56.061Z,16.40
2023-04-16T16:37:23.116Z,16.23
2023-04-16T16:39:50.015Z,16.21
2023-04-16T16:42:18.777Z,16.29
2023-04-16T16:44:49.072Z,16.22
2023-04-16T16:47:15.992Z,16.36
2023-04-16T16:49:42.854Z,16.27
2023-04-16T16:52:09.736Z,16.20
2023-04-16T16:54:36.905Z,16.30
2023-04-16T16:57:03.869Z,16.33
2023-04-16T16:59:30.996Z,16.35
2023-04-16T17:05:18.956Z,16.29
2023-04-16T17:07:46.012Z,16.16
2023-04-16T17:10:20.123Z,16.19
2023-04-16T17:12:49.542Z,16.09
2023-04-16T17:15:20.532Z,16.05
2023-04-16T17:17:48.713Z,16.11
2023-04-16T17:20:16.034Z,16.19
2023-04-16T17:22:43.140Z,16.11
2023-04-16T17:25:10.662Z,16.20
2023-04-16T17:27:37.729Z,16.23
2023-04-16T17:30:05.869Z,16.01
2023-04-16T17:32:34.404Z,16.02
2023-04-16T17:35:04.252Z,15.86
2023-04-16T17:37:33.145Z,16.01
2023-04-16T17:40:00.512Z,16.08
2023-04-16T17:42:27.698Z,16.02
2023-04-16T17:51:35.927Z,15.99
2023-04-16T17:54:03.549Z,15.94
2023-04-16T17:56:30.494Z,15.87
2023-04-16T17:58:57.513Z,15.79
2023-04-16T18:01:24.552Z,15.74
2023-04-16T18:03:51.788Z,15.56
2023-04-16T18:06:19.846Z,15.54
2023-04-16T18:08:46.784Z,15.29
2023-04-16T18:11:13.742Z,15.27
2023-04-16T18:13:40.875Z,15.33
2023-04-16T18:16:14.333Z,15.30
2023-04-16T18:18:41.379Z,15.09
2023-04-16T18:21:08.545Z,15.17
2023-04-16T18:23:35.753Z,15.21
2023-04-16T18:26:03.194Z,15.15
2023-04-16T18:28:30.165Z,15.11
2023-04-16T18:30:59.016Z,14.96
2023-04-16T18:33:49.937Z,15.03
2023-04-16T18:36:13.216Z,14.86
2023-04-16T18:38:52.939Z,14.94
2023-04-16T18:41:24.589Z,14.93
2023-04-16T18:43:51.731Z,14.90
2023-04-16T18:46:18.823Z,14.78
2023-04-16T18:48:45.914Z,14.76
2023-04-16T18:51:15.465Z,14.74
2023-04-16T18:53:44.509Z,14.64
2023-04-16T18:56:11.741Z,14.55
2023-04-16T18:58:38.944Z,14.60
2023-04-16T19:01:11.045Z,14.72
2023-04-16T19:03:38.854Z,14.62
2023-04-16T19:06:06.652Z,14.54
2023-04-16T19:08:33.802Z,14.71
2023-04-16T19:11:00.838Z,14.71
2023-04-16T19:13:27.969Z,14.57
2023-04-16T19:16:00.047Z,14.81
2023-04-16T19:18:27.230Z,14.81
2023-04-16T19:21:01.318Z,14.88
2023-04-16T19:23:29.164Z,14.95
2023-04-16T19:25:56.901Z,14.60
2023-04-16T19:28:25.305Z,14.78
2023-04-16T19:30:53.406Z,14.75
2023-04-16T19:33:20.461Z,14.62
2023-04-16T19:35:47.522Z,14.49
2023-04-16T19:38:14.553Z,14.41
2023-04-16T19:40:45.821Z,14.52
2023-04-16T19:43:13.098Z,14.22
2023-04-16T19:45:47.473Z,14.29
2023-04-16T19:48:14.667Z,14.26
2023-04-16T19:50:42.564Z,14.33
2023-04-16T19:53:10.320Z,14.18
2023-04-16T19:55:39.601Z,14.23
2023-04-16T19:58:06.799Z,14.21
2023-04-16T20:00:36.514Z,14.18
2023-04-16T20:03:04.629Z,14.19
2023-04-16T20:05:31.953Z,14.18
2023-04-16T20:07:58.933Z,13.84
2023-04-16T20:10:26.618Z,13.68
2023-04-16T20:12:53.720Z,13.57
2023-04-16T20:15:20.956Z,13.64
2023-04-16T20:17:47.959Z,13.27
2023-04-16T20:20:15.885Z,13.33
2023-04-16T20:22:43.278Z,13.52
2023-04-16T20:25:10.358Z,13.44
2023-04-16T20:27:37.351Z,13.30
2023-04-16T20:30:06.107Z,13.06
2023-04-16T20:32:33.299Z,13.26
2023-04-16T20:35:00.418Z,13.36
2023-04-16T20:37:29.365Z,13.05
2023-04-16T20:39:56.489Z,13.16
2023-04-16T20:42:26.296Z,13.11
2023-04-16T20:44:56.466Z,13.18
2023-04-16T20:47:23.957Z,13.16
2023-04-16T20:49:53.055Z,13.25
2023-04-16T20:52:21.427Z,13.13
2023-04-16T20:54:51.865Z,13.01
2023-04-16T20:57:19.091Z,13.10
2023-04-16T21:03:14.755Z,13.12
2023-04-16T21:05:41.997Z,13.15
2023-04-16T21:08:08.894Z,13.19
2023-04-16T21:10:36.049Z,13.17
2023-04-16T21:13:03.206Z,13.19
2023-04-16T21:15:30.979Z,13.07
2023-04-16T21:17:57.855Z,13.22
2023-04-16T21:20:24.838Z,12.90
2023-04-16T21:22:56.750Z,12.96
2023-04-16T21:25:24.123Z,12.92
2023-04-16T21:27:51.559Z,12.82
2023-04-16T21:30:18.595Z,12.85
2023-04-16T21:32:45.819Z,13.04
2023-04-16T21:35:12.886Z,13.19
2023-04-16T21:37:39.958Z,12.99
2023-04-16T21:40:08.206Z,12.89
2023-04-16T21:42:42.530Z,12.83
2023-04-16T21:45:10.455Z,12.77
2023-04-16T21:47:38.412Z,12.87
2023-04-16T21:50:06.341Z,12.79
2023-04-16T21:52:33.412Z,12.81
2023-04-16T21:55:00.767Z,12.81
2023-04-16T21:57:27.713Z,12.78
2023-04-16T21:59:54.864Z,12.80
2023-04-16T22:02:22.004Z,12.85
2023-04-16T22:04:49.082Z,12.80
2023-04-16T22:07:17.001Z,12.56
2023-04-16T22:09:44.109Z,12.32
2023-04-16T22:12:11.232Z,12.04
2023-04-16T22:14:44.098Z,12.12
2023-04-16T22:17:17.215Z,12.07
2023-04-16T22:19:44.633Z,12.04
2023-04-16T22:22:11.779Z,12.11
2023-04-16T22:24:38.772Z,12.20
2023-04-16T22:27:06.418Z,12.00
2023-04-16T22:29:33.637Z,12.16
2023-04-16T22:32:02.011Z,12.25
2023-04-16T22:34:29.447Z,12.53
2023-04-16T22:36:57.012Z,12.58
2023-04-16T22:39:24.092Z,12.35
2023-04-16T22:41:51.597Z,12.52
2023-04-16T22:44:18.741Z,12.21
2023-04-16T22:46:46.899Z,12.44
2023-04-16T22:49:14.065Z,12.36
2023-04-16T22:51:40.980Z,12.37
2023-04-16T22:54:09.150Z,12.18
2023-04-16T22:56:36.071Z,12.14
2023-04-16T22:59:03.061Z,12.16
2023-04-16T23:01:30.148Z,12.20
2023-04-16T23:03:57.227Z,12.18
2023-04-16T23:06:24.241Z,12.23
2023-04-16T23:08:51.334Z,12.27
2023-04-16T23:11:18.392Z,12.27
2023-04-16T23:13:45.741Z,12.35
2023-04-16T23:16:12.659Z,12.40
2023-04-16T23:18:39.622Z,12.45
2023-04-16T23:21:06.537Z,12.49
2023-04-16T23:23:33.485Z,12.55
2023-04-16T23:26:02.779Z,12.68
2023-04-16T23:28:29.733Z,12.30
2023-04-16T23:30:56.803Z,12.24
2023-04-16T23:33:23.777Z,12.17
2023-04-16T23:35:50.723Z,12.23
2023-04-16T23:38:17.692Z,12.37
2023-04-16T23:40:44.625Z,12.45
2023-04-16T23:43:11.619Z,12.53
2023-04-16T23:45:38.788Z,12.48
2023-04-16T23:48:06.210Z,12.61
2023-04-16T23:50:33.225Z,12.52
2023-04-16T23:53:00.206Z,12.56
2023-04-16T23:55:27.241Z,12.61
2023-04-16T23:57:54.197Z,12.69
